sensor_id;sensor_type;location;lat;lon;timestamp;pressure;altitude;pressure_sealevel;temperature;humidity
8069;BME280;4077;43.702;24.896;2023-03-22T00:01:19;99223.63;;;10.71;100.00
8069;BME280;4077;43.702;24.896;2023-03-22T00:03:46;99227.84;;;10.61;100.00
8069;BME280;4077;43.702;24.896;2023-03-22T00:06:12;99212.25;;;10.49;100.00
8069;BME280;4077;43.702;24.896;2023-03-22T00:08:37;99220.94;;;10.57;100.00
8069;BME280;4077;43.702;24.896;2023-03-22T00:11:04;99220.84;;;10.48;100.00
8069;BME280;4077;43.702;24.896;2023-03-22T00:13:30;99218.38;;;10.60;100.00
8069;BME280;4077;43.702;24.896;2023-03-22T00:15:56;99218.44;;;10.69;100.00
8069;BME280;4077;43.702;24.896;2023-03-22T00:18:22;99229.59;;;10.68;100.00
8069;BME280;4077;43.702;24.896;2023-03-22T00:20:52;99217.56;;;10.65;100.00
8069;BME280;4077;43.702;24.896;2023-03-22T00:23:19;99222.72;;;10.67;100.00
8069;BME280;4077;43.702;24.896;2023-03-22T00:25:45;99219.19;;;10.53;100.00
8069;BME280;4077;43.702;24.896;2023-03-22T00:28:11;99214.84;;;10.46;100.00
8069;BME280;4077;43.702;24.896;2023-03-22T00:30:37;99205.41;;;10.51;100.00
8069;BME280;4077;43.702;24.896;2023-03-22T00:33:02;99210.63;;;10.60;100.00
8069;BME280;4077;43.702;24.896;2023-03-22T00:35:27;99202.84;;;10.51;100.00
8069;BME280;4077;43.702;24.896;2023-03-22T00:37:54;99203.66;;;10.50;100.00
8069;BME280;4077;43.702;24.896;2023-03-22T00:40:19;99207.19;;;10.58;100.00
8069;BME280;4077;43.702;24.896;2023-03-22T00:42:45;99200.25;;;10.54;100.00
8069;BME280;4077;43.702;24.896;2023-03-22T00:45:11;99201.97;;;10.55;100.00
8069;BME280;4077;43.702;24.896;2023-03-22T00:47:37;99201.13;;;10.53;100.00
8069;BME280;4077;43.702;24.896;2023-03-22T00:50:04;99202.84;;;10.52;100.00
8069;BME280;4077;43.702;24.896;2023-03-22T00:52:30;99200.31;;;10.60;100.00
8069;BME280;4077;43.702;24.896;2023-03-22T00:54:56;99196.00;;;10.60;100.00
8069;BME280;4077;43.702;24.896;2023-03-22T00:57:21;99205.41;;;10.54;100.00
8069;BME280;4077;43.702;24.896;2023-03-22T00:59:47;99200.22;;;10.49;100.00
8069;BME280;4077;43.702;24.896;2023-03-22T01:02:13;99201.97;;;10.55;100.00
8069;BME280;4077;43.702;24.896;2023-03-22T01:04:40;99201.13;;;10.51;100.00
8069;BME280;4077;43.702;24.896;2023-03-22T01:07:15;99208.03;;;10.58;100.00
8069;BME280;4077;43.702;24.896;2023-03-22T01:09:52;99210.63;;;10.57;100.00
8069;BME280;4077;43.702;24.896;2023-03-22T01:12:18;99198.59;;;10.59;100.00
8069;BME280;4077;43.702;24.896;2023-03-22T01:14:44;99207.19;;;10.58;100.00
8069;BME280;4077;43.702;24.896;2023-03-22T01:17:10;99210.63;;;10.57;100.00
8069;BME280;4077;43.702;24.896;2023-03-22T01:19:36;99210.53;;;10.49;100.00
8069;BME280;4077;43.702;24.896;2023-03-22T01:22:03;99201.97;;;10.52;100.00
8069;BME280;4077;43.702;24.896;2023-03-22T01:24:28;99211.44;;;10.53;100.00
8069;BME280;4077;43.702;24.896;2023-03-22T01:26:54;99208.88;;;10.54;100.00
8069;BME280;4077;43.702;24.896;2023-03-22T01:29:20;99201.16;;;10.57;100.00
8069;BME280;4077;43.702;24.896;2023-03-22T01:31:46;99197.69;;;10.54;100.00
8069;BME280;4077;43.702;24.896;2023-03-22T01:34:11;99200.31;;;10.60;100.00
8069;BME280;4077;43.702;24.896;2023-03-22T01:36:37;99196.00;;;10.60;100.00
8069;BME280;4077;43.702;24.896;2023-03-22T01:39:02;99196.88;;;10.61;100.00
8069;BME280;4077;43.702;24.896;2023-03-22T01:41:28;99203.69;;;10.53;100.00
8069;BME280;4077;43.702;24.896;2023-03-22T01:44:14;99199.41;;;10.50;100.00
8069;BME280;4077;43.702;24.896;2023-03-22T01:46:42;99203.66;;;10.50;100.00
8069;BME280;4077;43.702;24.896;2023-03-22T01:49:11;99202.78;;;10.48;100.00
8069;BME280;4077;43.702;24.896;2023-03-22T01:51:38;99196.00;;;10.63;100.00
8069;BME280;4077;43.702;24.896;2023-03-22T01:54:08;99196.06;;;10.66;100.00
8069;BME280;4077;43.702;24.896;2023-03-22T01:56:37;99205.50;;;10.66;100.00
8069;BME280;4077;43.702;24.896;2023-03-22T01:59:04;99201.16;;;10.60;100.00
8069;BME280;4077;43.702;24.896;2023-03-22T02:01:31;99203.78;;;10.68;100.00
8069;BME280;4077;43.702;24.896;2023-03-22T02:04:01;99198.59;;;10.60;100.00
8069;BME280;4077;43.702;24.896;2023-03-22T02:06:29;99195.09;;;10.55;100.00
8069;BME280;4077;43.702;24.896;2023-03-22T02:08:56;99198.59;;;10.62;100.00
8069;BME280;4077;43.702;24.896;2023-03-22T02:11:33;99197.72;;;10.60;100.00
8069;BME280;4077;43.702;24.896;2023-03-22T02:17:00;99191.75;;;10.64;100.00
8069;BME280;4077;43.702;24.896;2023-03-22T02:25:13;99186.50;;;10.52;100.00
8069;BME280;4077;43.702;24.896;2023-03-22T02:31:07;99192.44;;;10.40;100.00
8069;BME280;4077;43.702;24.896;2023-03-22T02:44:47;99202.63;;;10.26;100.00
8069;BME280;4077;43.702;24.896;2023-03-22T02:48:11;99200.06;;;10.28;100.00
8069;BME280;4077;43.702;24.896;2023-03-22T02:52:49;99213.06;;;10.38;100.00
8069;BME280;4077;43.702;24.896;2023-03-22T02:58:25;99208.72;;;10.34;100.00
8069;BME280;4077;43.702;24.896;2023-03-22T03:00:56;99196.63;;;10.24;100.00
8069;BME280;4077;43.702;24.896;2023-03-22T03:03:26;99200.91;;;10.27;100.00
8069;BME280;4077;43.702;24.896;2023-03-22T03:06:01;99206.84;;;10.21;100.00
8069;BME280;4077;43.702;24.896;2023-03-22T03:08:33;99201.69;;;10.18;100.00
8069;BME280;4077;43.702;24.896;2023-03-22T03:10:59;99196.53;;;10.18;100.00
8069;BME280;4077;43.702;24.896;2023-03-22T03:13:25;99208.66;;;10.25;100.00
8069;BME280;4077;43.702;24.896;2023-03-22T03:15:53;99212.16;;;10.30;100.00
8069;BME280;4077;43.702;24.896;2023-03-22T03:18:42;99212.25;;;10.46;100.00
8069;BME280;4077;43.702;24.896;2023-03-22T03:24:26;99224.34;;;10.56;100.00
8069;BME280;4077;43.702;24.896;2023-03-22T03:27:16;99226.06;;;10.52;100.00
8069;BME280;4077;43.702;24.896;2023-03-22T03:29:48;99227.69;;;10.43;100.00
8069;BME280;4077;43.702;24.896;2023-03-22T03:32:25;99231.22;;;10.51;100.00
8069;BME280;4077;43.702;24.896;2023-03-22T03:35:04;99216.56;;;10.45;100.00
8069;BME280;4077;43.702;24.896;2023-03-22T03:37:40;99227.72;;;10.46;100.00
8069;BME280;4077;43.702;24.896;2023-03-22T03:40:11;99226.84;;;10.42;100.00
8069;BME280;4077;43.702;24.896;2023-03-22T03:42:48;99226.88;;;10.44;100.00
8069;BME280;4077;43.702;24.896;2023-03-22T03:45:16;99228.59;;;10.45;100.00
8069;BME280;4077;43.702;24.896;2023-03-22T03:47:44;99229.41;;;10.40;100.00
8069;BME280;4077;43.702;24.896;2023-03-22T03:50:12;99229.50;;;10.53;100.00
8069;BME280;4077;43.702;24.896;2023-03-22T03:52:40;99226.88;;;10.45;100.00
8069;BME280;4077;43.702;24.896;2023-03-22T03:55:05;99226.88;;;10.45;100.00
8069;BME280;4077;43.702;24.896;2023-03-22T03:57:31;99232.03;;;10.47;100.00
8069;BME280;4077;43.702;24.896;2023-03-22T03:59:57;99229.47;;;10.47;100.00
8069;BME280;4077;43.702;24.896;2023-03-22T04:02:22;99232.91;;;10.49;100.00
8069;BME280;4077;43.702;24.896;2023-03-22T04:04:48;99241.50;;;10.48;100.00
8069;BME280;4077;43.702;24.896;2023-03-22T04:07:13;99229.50;;;10.56;100.00
8069;BME280;4077;43.702;24.896;2023-03-22T04:09:39;99236.38;;;10.51;100.00
8069;BME280;4077;43.702;24.896;2023-03-22T04:12:05;99237.22;;;10.50;100.00
8069;BME280;4077;43.702;24.896;2023-03-22T04:14:34;99240.69;;;10.50;100.00
8069;BME280;4077;43.702;24.896;2023-03-22T04:16:59;99244.13;;;10.55;100.00
8069;BME280;4077;43.702;24.896;2023-03-22T04:19:25;99245.84;;;10.53;100.00
8069;BME280;4077;43.702;24.896;2023-03-22T04:21:51;99251.88;;;10.54;100.00
8069;BME280;4077;43.702;24.896;2023-03-22T04:24:18;99256.22;;;10.62;100.00
8069;BME280;4077;43.702;24.896;2023-03-22T04:26:44;99245.91;;;10.58;100.00
8069;BME280;4077;43.702;24.896;2023-03-22T04:29:09;99256.19;;;10.55;100.00
8069;BME280;4077;43.702;24.896;2023-03-22T04:31:35;99257.91;;;10.53;100.00
8069;BME280;4077;43.702;24.896;2023-03-22T04:34:01;99262.16;;;10.46;100.00
8069;BME280;4077;43.702;24.896;2023-03-22T04:36:31;99258.75;;;10.55;100.00
8069;BME280;4077;43.702;24.896;2023-03-22T04:39:03;99258.81;;;10.58;100.00
8069;BME280;4077;43.702;24.896;2023-03-22T04:41:30;99269.09;;;10.56;100.00
8069;BME280;4077;43.702;24.896;2023-03-22T04:43:56;99269.97;;;10.57;100.00
8069;BME280;4077;43.702;24.896;2023-03-22T04:46:22;99273.44;;;10.57;100.00
8069;BME280;4077;43.702;24.896;2023-03-22T04:48:47;99279.41;;;10.52;100.00
8069;BME280;4077;43.702;24.896;2023-03-22T04:51:13;99275.97;;;10.56;100.00
8069;BME280;4077;43.702;24.896;2023-03-22T04:53:38;99280.31;;;10.57;100.00
8069;BME280;4077;43.702;24.896;2023-03-22T04:56:09;99282.00;;;10.55;100.00
8069;BME280;4077;43.702;24.896;2023-03-22T04:58:37;99280.19;;;10.43;100.00
8069;BME280;4077;43.702;24.896;2023-03-22T05:01:04;99280.19;;;10.43;100.00
8069;BME280;4077;43.702;24.896;2023-03-22T05:03:31;99281.91;;;10.46;100.00
8069;BME280;4077;43.702;24.896;2023-03-22T05:06:00;99281.06;;;10.44;100.00
8069;BME280;4077;43.702;24.896;2023-03-22T05:08:28;99285.31;;;10.41;100.00
8069;BME280;4077;43.702;24.896;2023-03-22T05:10:56;99284.50;;;10.46;100.00
8069;BME280;4077;43.702;24.896;2023-03-22T05:13:23;99283.69;;;10.53;100.00
8069;BME280;4077;43.702;24.896;2023-03-22T05:15:49;99293.16;;;10.51;100.00
8069;BME280;4077;43.702;24.896;2023-03-22T05:18:16;99287.94;;;10.48;100.00
8069;BME280;4077;43.702;24.896;2023-03-22T05:20:42;99293.97;;;10.47;100.00
8069;BME280;4077;43.702;24.896;2023-03-22T05:23:08;99286.22;;;10.47;100.00
8069;BME280;4077;43.702;24.896;2023-03-22T05:25:35;99288.00;;;10.52;100.00
8069;BME280;4077;43.702;24.896;2023-03-22T05:28:02;99286.34;;;10.59;100.00
8069;BME280;4077;43.702;24.896;2023-03-22T05:30:28;99291.53;;;10.65;100.00
8069;BME280;4077;43.702;24.896;2023-03-22T05:33:02;99286.38;;;10.65;100.00
8069;BME280;4077;43.702;24.896;2023-03-22T05:35:29;99307.91;;;10.70;100.00
8069;BME280;4077;43.702;24.896;2023-03-22T05:37:56;99307.03;;;10.65;100.00
8069;BME280;4077;43.702;24.896;2023-03-22T05:40:22;99300.09;;;10.61;100.00
8069;BME280;4077;43.702;24.896;2023-03-22T05:42:48;99306.97;;;10.59;100.00
8069;BME280;4077;43.702;24.896;2023-03-22T05:45:13;99306.13;;;10.60;100.00
8069;BME280;4077;43.702;24.896;2023-03-22T05:47:39;99313.06;;;10.68;100.00
8069;BME280;4077;43.702;24.896;2023-03-22T05:50:10;99317.41;;;10.71;100.00
8069;BME280;4077;43.702;24.896;2023-03-22T05:52:36;99328.66;;;10.79;100.00
8069;BME280;4077;43.702;24.896;2023-03-22T05:55:02;99330.44;;;10.85;100.00
8069;BME280;4077;43.702;24.896;2023-03-22T05:57:28;99334.69;;;10.81;100.00
8069;BME280;4077;43.702;24.896;2023-03-22T05:59:57;99339.91;;;10.87;100.00
8069;BME280;4077;43.702;24.896;2023-03-22T06:02:23;99348.47;;;10.80;100.00
8069;BME280;4077;43.702;24.896;2023-03-22T06:04:49;99347.66;;;10.84;100.00
8069;BME280;4077;43.702;24.896;2023-03-22T06:07:16;99338.19;;;10.91;100.00
8069;BME280;4077;43.702;24.896;2023-03-22T06:09:42;99348.47;;;10.83;100.00
8069;BME280;4077;43.702;24.896;2023-03-22T06:12:08;99355.38;;;10.84;100.00
8069;BME280;4077;43.702;24.896;2023-03-22T06:14:33;99359.69;;;10.87;100.00
8069;BME280;4077;43.702;24.896;2023-03-22T06:16:59;99358.78;;;10.80;100.00
8069;BME280;4077;43.702;24.896;2023-03-22T06:19:25;99364.75;;;10.75;100.00
8069;BME280;4077;43.702;24.896;2023-03-22T06:21:52;99356.16;;;10.77;100.00
8069;BME280;4077;43.702;24.896;2023-03-22T06:24:18;99364.75;;;10.73;100.00
8069;BME280;4077;43.702;24.896;2023-03-22T06:26:43;99364.75;;;10.72;100.00
8069;BME280;4077;43.702;24.896;2023-03-22T06:29:09;99365.69;;;10.81;100.00
8069;BME280;4077;43.702;24.896;2023-03-22T06:31:35;99373.34;;;10.74;100.00
8069;BME280;4077;43.702;24.896;2023-03-22T06:34:01;99371.66;;;10.76;100.00
8069;BME280;4077;43.702;24.896;2023-03-22T06:36:26;99379.31;;;10.68;100.00
8069;BME280;4077;43.702;24.896;2023-03-22T06:38:51;99369.78;;;10.61;100.00
8069;BME280;4077;43.702;24.896;2023-03-22T06:41:18;99375.75;;;10.55;100.00
8069;BME280;4077;43.702;24.896;2023-03-22T06:43:43;99375.75;;;10.54;100.00
8069;BME280;4077;43.702;24.896;2023-03-22T06:46:09;99382.63;;;10.52;100.00
8069;BME280;4077;43.702;24.896;2023-03-22T06:48:34;99383.50;;;10.54;100.00
8069;BME280;4077;43.702;24.896;2023-03-22T06:51:00;99381.78;;;10.54;100.00
8069;BME280;4077;43.702;24.896;2023-03-22T06:53:25;99386.06;;;10.51;100.00
8069;BME280;4077;43.702;24.896;2023-03-22T06:55:51;99396.41;;;10.54;100.00
8069;BME280;4077;43.702;24.896;2023-03-22T06:58:17;99393.72;;;10.43;100.00
8069;BME280;4077;43.702;24.896;2023-03-22T07:00:42;99382.50;;;10.43;100.00
8069;BME280;4077;43.702;24.896;2023-03-22T07:03:08;99392.03;;;10.47;100.00
8069;BME280;4077;43.702;24.896;2023-03-22T07:05:33;99387.56;;;10.32;100.00
8069;BME280;4077;43.702;24.896;2023-03-22T07:07:58;99398.84;;;10.41;100.00
8069;BME280;4077;43.702;24.896;2023-03-22T07:10:24;99396.25;;;10.41;100.00
8069;BME280;4077;43.702;24.896;2023-03-22T07:12:49;99403.25;;;10.50;100.00
8069;BME280;4077;43.702;24.896;2023-03-22T07:15:15;99390.22;;;10.38;100.00
8069;BME280;4077;43.702;24.896;2023-03-22T07:17:41;99393.88;;;10.58;100.00
8069;BME280;4077;43.702;24.896;2023-03-22T07:20:07;99403.41;;;10.64;100.00
8069;BME280;4077;43.702;24.896;2023-03-22T07:22:33;99398.25;;;10.65;100.00
8069;BME280;4077;43.702;24.896;2023-03-22T07:24:58;99402.50;;;10.62;100.00
8069;BME280;4077;43.702;24.896;2023-03-22T07:27:24;99403.41;;;10.64;100.00
8069;BME280;4077;43.702;24.896;2023-03-22T07:29:49;99403.41;;;10.64;100.00
8069;BME280;4077;43.702;24.896;2023-03-22T07:32:15;99405.19;;;10.71;100.00
8069;BME280;4077;43.702;24.896;2023-03-22T07:34:40;99406.97;;;10.78;100.00
8069;BME280;4077;43.702;24.896;2023-03-22T07:37:06;99405.13;;;10.68;100.00
8069;BME280;4077;43.702;24.896;2023-03-22T07:39:33;99396.53;;;10.66;100.00
8069;BME280;4077;43.702;24.896;2023-03-22T07:41:58;99402.50;;;10.60;100.00
8069;BME280;4077;43.702;24.896;2023-03-22T07:44:25;99407.78;;;10.73;100.00
8069;BME280;4077;43.702;24.896;2023-03-22T07:46:50;99406.06;;;10.73;100.00
8069;BME280;4077;43.702;24.896;2023-03-22T07:49:17;99400.22;;;10.92;100.00
8069;BME280;4077;43.702;24.896;2023-03-22T07:51:43;99414.91;;;11.00;100.00
8069;BME280;4077;43.702;24.896;2023-03-22T07:54:08;99411.41;;;10.94;100.00
8069;BME280;4077;43.702;24.896;2023-03-22T07:56:34;99398.25;;;10.65;100.00
8069;BME280;4077;43.702;24.896;2023-03-22T07:58:59;99412.94;;;10.71;100.00
8069;BME280;4077;43.702;24.896;2023-03-22T08:01:25;99401.63;;;10.63;100.00
8069;BME280;4077;43.702;24.896;2023-03-22T08:03:51;99412.81;;;10.62;100.00
8069;BME280;4077;43.702;24.896;2023-03-22T08:06:18;99412.94;;;10.71;100.00
8069;BME280;4077;43.702;24.896;2023-03-22T08:08:45;99412.06;;;10.71;100.00
8069;BME280;4077;43.702;24.896;2023-03-22T08:11:11;99417.31;;;10.81;100.00
8069;BME280;4077;43.702;24.896;2023-03-22T08:13:36;99416.31;;;10.65;100.00
8069;BME280;4077;43.702;24.896;2023-03-22T08:16:02;99415.25;;;10.50;100.00
8069;BME280;4077;43.702;24.896;2023-03-22T08:18:28;99418.84;;;10.61;100.00
8069;BME280;4077;43.702;24.896;2023-03-22T08:20:54;99420.56;;;10.62;100.00
8069;BME280;4077;43.702;24.896;2023-03-22T08:23:21;99425.72;;;10.62;100.00
8069;BME280;4077;43.702;24.896;2023-03-22T08:25:46;99424.06;;;10.70;100.00
8069;BME280;4077;43.702;24.896;2023-03-22T08:28:12;99424.97;;;10.71;100.00
8069;BME280;4077;43.702;24.896;2023-03-22T08:30:38;99425.72;;;10.63;100.00
8069;BME280;4077;43.702;24.896;2023-03-22T08:33:04;99430.81;;;10.53;100.00
8069;BME280;4077;43.702;24.896;2023-03-22T08:35:30;99433.47;;;10.60;100.00
8069;BME280;4077;43.702;24.896;2023-03-22T08:37:56;99432.59;;;10.60;100.00
8069;BME280;4077;43.702;24.896;2023-03-22T08:40:22;99433.47;;;10.60;100.00
8069;BME280;4077;43.702;24.896;2023-03-22T08:42:48;99433.47;;;10.60;100.00
8069;BME280;4077;43.702;24.896;2023-03-22T08:45:15;99423.91;;;10.50;100.00
8069;BME280;4077;43.702;24.896;2023-03-22T08:47:40;99430.88;;;10.59;100.00
8069;BME280;4077;43.702;24.896;2023-03-22T08:50:07;99425.56;;;10.47;100.00
8069;BME280;4077;43.702;24.896;2023-03-22T08:52:32;99434.22;;;10.50;100.00
8069;BME280;4077;43.702;24.896;2023-03-22T08:54:58;99432.47;;;10.48;100.00
8069;BME280;4077;43.702;24.896;2023-03-22T08:57:23;99427.22;;;10.38;100.00
8069;BME280;4077;43.702;24.896;2023-03-22T08:59:55;99443.56;;;10.39;100.00
8069;BME280;4077;43.702;24.896;2023-03-22T09:02:22;99438.47;;;10.44;100.00
8069;BME280;4077;43.702;24.896;2023-03-22T09:04:48;99441.91;;;10.46;100.00
8069;BME280;4077;43.702;24.896;2023-03-22T09:07:14;99446.22;;;10.48;100.00
8069;BME280;4077;43.702;24.896;2023-03-22T09:09:39;99448.00;;;10.51;100.00
8069;BME280;4077;43.702;24.896;2023-03-22T09:12:05;99454.88;;;10.52;100.00
8069;BME280;4077;43.702;24.896;2023-03-22T09:14:31;99445.41;;;10.51;100.00
8069;BME280;4077;43.702;24.896;2023-03-22T09:16:56;99451.34;;;10.44;100.00
8069;BME280;4077;43.702;24.896;2023-03-22T09:19:21;99448.81;;;10.48;100.00
8069;BME280;4077;43.702;24.896;2023-03-22T09:21:47;99453.09;;;10.48;100.00
8069;BME280;4077;43.702;24.896;2023-03-22T09:24:14;99448.78;;;10.45;100.00
8069;BME280;4077;43.702;24.896;2023-03-22T09:26:39;99453.19;;;10.55;100.00
8069;BME280;4077;43.702;24.896;2023-03-22T09:29:05;99444.56;;;10.52;100.00
8069;BME280;4077;43.702;24.896;2023-03-22T09:31:31;99451.53;;;10.62;100.00
8069;BME280;4077;43.702;24.896;2023-03-22T09:33:56;99444.63;;;10.59;100.00
8069;BME280;4077;43.702;24.896;2023-03-22T09:36:22;99449.66;;;10.49;100.00
8069;BME280;4077;43.702;24.896;2023-03-22T09:38:47;99444.50;;;10.46;100.00
8069;BME280;4077;43.702;24.896;2023-03-22T09:41:34;99444.56;;;10.55;100.00
8069;BME280;4077;43.702;24.896;2023-03-22T09:44:05;99438.47;;;10.44;100.00
8069;BME280;4077;43.702;24.896;2023-03-22T09:46:40;99436.88;;;10.58;100.00
8069;BME280;4077;43.702;24.896;2023-03-22T09:49:14;99446.50;;;10.74;100.00
8069;BME280;4077;43.702;24.896;2023-03-22T09:51:43;99433.53;;;10.66;100.00
8069;BME280;4077;43.702;24.896;2023-03-22T09:54:23;99435.22;;;10.64;100.00
8069;BME280;4077;43.702;24.896;2023-03-22T09:56:59;99444.66;;;10.61;100.00
8069;BME280;4077;43.702;24.896;2023-03-22T09:59:43;99440.47;;;10.72;100.00
8069;BME280;4077;43.702;24.896;2023-03-22T10:10:36;99451.66;;;10.74;100.00
8069;BME280;4077;43.702;24.896;2023-03-22T10:13:16;99449.03;;;10.68;100.00
8069;BME280;4077;43.702;24.896;2023-03-22T10:15:58;99453.41;;;10.75;100.00
8069;BME280;4077;43.702;24.896;2023-03-22T10:18:34;99451.69;;;10.77;100.00
8069;BME280;4077;43.702;24.896;2023-03-22T10:21:08;99453.47;;;10.81;100.00
8069;BME280;4077;43.702;24.896;2023-03-22T10:23:55;99457.03;;;10.92;100.00
8069;BME280;4077;43.702;24.896;2023-03-22T10:26:26;99459.56;;;10.89;100.00
8069;BME280;4077;43.702;24.896;2023-03-22T10:29:01;99457.09;;;10.99;100.00
8069;BME280;4077;43.702;24.896;2023-03-22T10:31:29;99461.34;;;10.96;100.00
8069;BME280;4077;43.702;24.896;2023-03-22T10:33:58;99465.69;;;11.01;100.00
8069;BME280;4077;43.702;24.896;2023-03-22T10:36:29;99452.66;;;10.87;100.00
8069;BME280;4077;43.702;24.896;2023-03-22T10:42:00;99453.47;;;10.81;100.00
8069;BME280;4077;43.702;24.896;2023-03-22T10:44:28;99452.53;;;10.76;100.00
8069;BME280;4077;43.702;24.896;2023-03-22T10:46:58;99457.72;;;10.76;100.00
8069;BME280;4077;43.702;24.896;2023-03-22T10:49:32;99456.91;;;10.83;100.00
8069;BME280;4077;43.702;24.896;2023-03-22T10:52:53;99461.13;;;10.75;100.00
8069;BME280;4077;43.702;24.896;2023-03-22T10:54:51;99458.56;;;10.75;100.00
8069;BME280;4077;43.702;24.896;2023-03-22T10:57:17;99459.47;;;10.79;100.00
8069;BME280;4077;43.702;24.896;2023-03-22T10:59:50;99462.06;;;10.83;100.00
8069;BME280;4077;43.702;24.896;2023-03-22T11:02:30;99461.22;;;10.83;100.00
8069;BME280;4077;43.702;24.896;2023-03-22T11:05:04;99455.16;;;10.79;100.00
8069;BME280;4077;43.702;24.896;2023-03-22T11:07:38;99456.09;;;10.86;100.00
8069;BME280;4077;43.702;24.896;2023-03-22T11:12:32;99451.78;;;10.86;100.00
8069;BME280;4077;43.702;24.896;2023-03-22T11:14:58;99443.13;;;10.78;100.00
8069;BME280;4077;43.702;24.896;2023-03-22T11:17:23;99442.06;;;10.62;100.00
8069;BME280;4077;43.702;24.896;2023-03-22T11:19:55;99442.06;;;10.59;100.00
8069;BME280;4077;43.702;24.896;2023-03-22T11:24:54;99430.03;;;10.63;100.00
8069;BME280;4077;43.702;24.896;2023-03-22T11:27:26;99440.41;;;10.66;100.00
8069;BME280;4077;43.702;24.896;2023-03-22T11:29:56;99442.06;;;10.61;100.00
8069;BME280;4077;43.702;24.896;2023-03-22T11:32:35;99437.53;;;10.38;100.00
8069;BME280;4077;43.702;24.896;2023-03-22T11:35:14;99424.69;;;10.43;100.00
8069;BME280;4077;43.702;24.896;2023-03-22T11:37:42;99428.88;;;10.33;100.00
8069;BME280;4077;43.702;24.896;2023-03-22T11:40:28;99421.91;;;10.26;100.00
8069;BME280;4077;43.702;24.896;2023-03-22T11:45:42;99417.84;;;10.50;100.00
8069;BME280;4077;43.702;24.896;2023-03-22T11:48:16;99413.59;;;10.55;100.00
8069;BME280;4077;43.702;24.896;2023-03-22T11:50:43;99417.09;;;10.57;100.00
8069;BME280;4077;43.702;24.896;2023-03-22T11:53:15;99415.25;;;10.47;100.00
8069;BME280;4077;43.702;24.896;2023-03-22T11:55:42;99419.63;;;10.52;100.00
8069;BME280;4077;43.702;24.896;2023-03-22T11:58:23;99419.63;;;10.54;100.00
8069;BME280;4077;43.702;24.896;2023-03-22T12:00:49;99411.94;;;10.57;100.00
8069;BME280;4077;43.702;24.896;2023-03-22T12:03:19;99418.09;;;10.74;100.00
8069;BME280;4077;43.702;24.896;2023-03-22T12:05:48;99413.91;;;10.85;100.00
8069;BME280;4077;43.702;24.896;2023-03-22T12:10:49;99412.19;;;10.84;100.00
8069;BME280;4077;43.702;24.896;2023-03-22T12:13:18;99422.59;;;10.92;100.00
8069;BME280;4077;43.702;24.896;2023-03-22T12:15:52;99420.03;;;10.95;100.00
8069;BME280;4077;43.702;24.896;2023-03-22T12:20:57;99417.50;;;11.03;100.00
8069;BME280;4077;43.702;24.896;2023-03-22T12:23:25;99421.75;;;10.98;100.00
8069;BME280;4077;43.702;24.896;2023-03-22T12:28:40;99414.09;;;11.10;100.00
8069;BME280;4077;43.702;24.896;2023-03-22T12:31:14;99420.94;;;11.05;100.00
8069;BME280;4077;43.702;24.896;2023-03-22T12:33:42;99414.97;;;11.06;100.00
8069;BME280;4077;43.702;24.896;2023-03-22T12:36:15;99406.41;;;11.17;100.00
8069;BME280;4077;43.702;24.896;2023-03-22T12:41:24;99413.41;;;11.26;100.00
8069;BME280;4077;43.702;24.896;2023-03-22T12:47:02;99414.41;;;11.52;100.00
8069;BME280;4077;43.702;24.896;2023-03-22T12:49:36;99420.53;;;11.64;100.00
8069;BME280;4077;43.702;24.896;2023-03-22T12:52:30;99420.59;;;11.76;100.00
8069;BME280;4077;43.702;24.896;2023-03-22T12:54:59;99424.91;;;11.80;100.00
8069;BME280;4077;43.702;24.896;2023-03-22T12:57:26;99418.78;;;11.61;100.00
8069;BME280;4077;43.702;24.896;2023-03-22T12:59:55;99420.66;;;11.82;100.00
8069;BME280;4077;43.702;24.896;2023-03-22T13:02:31;99424.06;;;11.79;100.00
8069;BME280;4077;43.702;24.896;2023-03-22T13:05:03;99417.97;;;11.73;100.00
8069;BME280;4077;43.702;24.896;2023-03-22T13:07:50;99418.00;;;11.79;100.00
8069;BME280;4077;43.702;24.896;2023-03-22T13:16:01;99422.47;;;11.97;100.00
8069;BME280;4077;43.702;24.896;2023-03-22T13:18:37;99423.31;;;11.97;100.00
8069;BME280;4077;43.702;24.896;2023-03-22T13:23:32;99414.69;;;11.98;100.00
8069;BME280;4077;43.702;24.896;2023-03-22T13:26:00;99419.09;;;12.16;100.00
8069;BME280;4077;43.702;24.896;2023-03-22T13:28:27;99417.41;;;12.26;100.00
8069;BME280;4077;43.702;24.896;2023-03-22T13:30:55;99414.84;;;12.38;100.00
8069;BME280;4077;43.702;24.896;2023-03-22T13:35:54;99415.75;;;12.54;100.00
8069;BME280;4077;43.702;24.896;2023-03-22T13:38:42;99421.75;;;12.36;100.00
8069;BME280;4077;43.702;24.896;2023-03-22T13:43:49;99425.09;;;12.11;100.00
8069;BME280;4077;43.702;24.896;2023-03-22T14:01:58;99399.13;;;11.85;100.00
8069;BME280;4077;43.702;24.896;2023-03-22T14:04:46;99403.44;;;11.83;100.00
8069;BME280;4077;43.702;24.896;2023-03-22T14:07:37;99406.81;;;11.77;100.00
8069;BME280;4077;43.702;24.896;2023-03-22T14:10:06;99403.31;;;11.67;100.00
8069;BME280;4077;43.702;24.896;2023-03-22T14:12:59;99401.59;;;11.72;100.00
8069;BME280;4077;43.702;24.896;2023-03-22T14:15:32;99381.69;;;11.56;100.00
8069;BME280;4077;43.702;24.896;2023-03-22T14:18:04;99405.06;;;11.73;100.00
8069;BME280;4077;43.702;24.896;2023-03-22T14:20:34;99399.06;;;11.80;100.00
8069;BME280;4077;43.702;24.896;2023-03-22T14:23:06;99401.72;;;11.85;100.00
8069;BME280;4077;43.702;24.896;2023-03-22T14:25:35;99397.41;;;11.82;100.00
8069;BME280;4077;43.702;24.896;2023-03-22T14:28:06;99400.75;;;11.72;100.00
8069;BME280;4077;43.702;24.896;2023-03-22T14:33:00;99404.22;;;11.77;100.00
8069;BME280;4077;43.702;24.896;2023-03-22T14:35:40;99407.78;;;11.88;100.00
8069;BME280;4077;43.702;24.896;2023-03-22T14:38:17;99411.22;;;11.90;100.00
8069;BME280;4077;43.702;24.896;2023-03-22T14:40:44;99408.59;;;11.83;100.00
8069;BME280;4077;43.702;24.896;2023-03-22T14:45:41;99407.63;;;11.73;100.00
8069;BME280;4077;43.702;24.896;2023-03-22T14:48:16;99406.03;;;11.84;100.00